sensor_id;sensor_type;location;lat;lon;timestamp;pressure;altitude;pressure_sealevel;temperature;humidity
48668;BME280;34453;52.198;5.004;2023-06-26T00:02:09;101300.72;;;23.56;100.00
48668;BME280;34453;52.198;5.004;2023-06-26T00:04:34;101284.34;;;23.52;100.00
48668;BME280;34453;52.198;5.004;2023-06-26T00:07:01;101271.66;;;23.48;100.00
48668;BME280;34453;52.198;5.004;2023-06-26T00:09:26;101279.25;;;23.44;100.00
48668;BME280;34453;52.198;5.004;2023-06-26T00:11:52;101270.03;;;23.40;100.00
48668;BME280;34453;52.198;5.004;2023-06-26T00:14:17;101273.41;;;23.29;100.00
48668;BME280;34453;52.198;5.004;2023-06-26T00:16:48;101273.19;;;23.30;100.00
48668;BME280;34453;52.198;5.004;2023-06-26T00:19:17;101265.25;;;23.17;100.00
48668;BME280;34453;52.198;5.004;2023-06-26T00:21:43;101269.34;;;23.20;100.00
48668;BME280;34453;52.198;5.004;2023-06-26T00:24:13;101262.81;;;23.15;100.00
48668;BME280;34453;52.198;5.004;2023-06-26T00:26:39;101256.84;;;23.13;100.00
48668;BME280;34453;52.198;5.004;2023-06-26T00:29:04;101265.09;;;23.05;100.00
48668;BME280;34453;52.198;5.004;2023-06-26T00:31:30;101267.59;;;23.00;100.00
48668;BME280;34453;52.198;5.004;2023-06-26T00:33:56;101268.81;;;22.97;100.00
48668;BME280;34453;52.198;5.004;2023-06-26T00:36:21;101275.19;;;22.90;100.00
48668;BME280;34453;52.198;5.004;2023-06-26T00:38:49;101284.31;;;22.75;100.00
48668;BME280;34453;52.198;5.004;2023-06-26T00:41:15;101288.88;;;22.62;100.00
48668;BME280;34453;52.198;5.004;2023-06-26T00:43:40;101299.13;;;22.51;100.00
48668;BME280;34453;52.198;5.004;2023-06-26T00:46:09;101292.19;;;22.44;100.00
48668;BME280;34453;52.198;5.004;2023-06-26T00:48:36;101292.22;;;22.37;100.00
48668;BME280;34453;52.198;5.004;2023-06-26T00:51:02;101296.13;;;22.28;100.00
48668;BME280;34453;52.198;5.004;2023-06-26T00:53:27;101299.78;;;22.20;100.00
48668;BME280;34453;52.198;5.004;2023-06-26T00:55:53;101301.63;;;22.20;100.00
48668;BME280;34453;52.198;5.004;2023-06-26T00:58:21;101305.53;;;22.17;100.00
48668;BME280;34453;52.198;5.004;2023-06-26T01:00:49;101302.88;;;22.10;100.00
48668;BME280;34453;52.198;5.004;2023-06-26T01:03:14;101311.50;;;22.06;100.00
48668;BME280;34453;52.198;5.004;2023-06-26T01:05:40;101317.84;;;21.98;100.00
48668;BME280;34453;52.198;5.004;2023-06-26T01:08:07;101314.56;;;21.89;100.00
48668;BME280;34453;52.198;5.004;2023-06-26T01:10:33;101322.53;;;21.76;100.00
48668;BME280;34453;52.198;5.004;2023-06-26T01:12:58;101331.75;;;21.67;100.00
48668;BME280;34453;52.198;5.004;2023-06-26T01:15:24;101325.41;;;21.61;100.00
48668;BME280;34453;52.198;5.004;2023-06-26T01:17:50;101338.06;;;21.52;100.00
48668;BME280;34453;52.198;5.004;2023-06-26T01:20:17;101335.59;;;21.44;100.00
48668;BME280;34453;52.198;5.004;2023-06-26T01:28:31;101346.34;;;21.29;100.00
48668;BME280;34453;52.198;5.004;2023-06-26T01:30:58;101343.66;;;21.23;100.00
48668;BME280;34453;52.198;5.004;2023-06-26T01:33:24;101342.22;;;21.14;100.00
48668;BME280;34453;52.198;5.004;2023-06-26T01:35:49;101335.00;;;21.07;100.00
48668;BME280;34453;52.198;5.004;2023-06-26T01:38:17;101333.78;;;21.03;100.00
48668;BME280;34453;52.198;5.004;2023-06-26T01:40:43;101324.75;;;20.98;100.00
48668;BME280;34453;52.198;5.004;2023-06-26T01:46:23;101324.09;;;20.89;100.00
48668;BME280;34453;52.198;5.004;2023-06-26T01:51:27;101336.31;;;20.77;100.00
48668;BME280;34453;52.198;5.004;2023-06-26T01:53:57;101352.03;;;20.72;100.00
48668;BME280;34453;52.198;5.004;2023-06-26T01:56:24;101357.31;;;20.65;100.00
48668;BME280;34453;52.198;5.004;2023-06-26T01:58:51;101358.34;;;20.64;100.00
48668;BME280;34453;52.198;5.004;2023-06-26T02:01:20;101356.66;;;20.63;100.00
48668;BME280;34453;52.198;5.004;2023-06-26T02:03:46;101358.28;;;20.57;100.00
48668;BME280;34453;52.198;5.004;2023-06-26T02:06:11;101345.81;;;20.58;100.00
48668;BME280;34453;52.198;5.004;2023-06-26T02:08:37;101346.19;;;20.55;100.00
48668;BME280;34453;52.198;5.004;2023-06-26T02:11:02;101350.44;;;20.49;100.00
48668;BME280;34453;52.198;5.004;2023-06-26T02:13:28;101363.72;;;20.49;100.00
48668;BME280;34453;52.198;5.004;2023-06-26T02:15:53;101361.47;;;20.46;100.00
48668;BME280;34453;52.198;5.004;2023-06-26T02:18:18;101362.09;;;20.48;100.00
48668;BME280;34453;52.198;5.004;2023-06-26T02:20:48;101349.59;;;20.48;100.00
48668;BME280;34453;52.198;5.004;2023-06-26T02:23:14;101372.72;;;20.48;100.00
48668;BME280;34453;52.198;5.004;2023-06-26T02:25:39;101381.06;;;20.45;100.00
48668;BME280;34453;52.198;5.004;2023-06-26T02:28:04;101371.97;;;20.33;100.00
48668;BME280;34453;52.198;5.004;2023-06-26T02:30:30;101377.47;;;20.31;100.00
48668;BME280;34453;52.198;5.004;2023-06-26T02:32:55;101391.16;;;20.28;100.00
48668;BME280;34453;52.198;5.004;2023-06-26T02:35:21;101386.44;;;20.23;100.00
48668;BME280;34453;52.198;5.004;2023-06-26T02:37:46;101378.13;;;20.12;100.00
48668;BME280;34453;52.198;5.004;2023-06-26T02:40:11;101390.72;;;20.03;100.00
48668;BME280;34453;52.198;5.004;2023-06-26T02:42:37;101396.81;;;19.97;100.00
48668;BME280;34453;52.198;5.004;2023-06-26T02:45:03;101384.03;;;19.85;100.00
48668;BME280;34453;52.198;5.004;2023-06-26T02:47:28;101406.84;;;19.80;100.00
48668;BME280;34453;52.198;5.004;2023-06-26T02:49:54;101408.84;;;19.78;100.00
48668;BME280;34453;52.198;5.004;2023-06-26T02:52:19;101419.94;;;19.66;100.00
48668;BME280;34453;52.198;5.004;2023-06-26T02:54:45;101410.69;;;19.62;100.00
48668;BME280;34453;52.198;5.004;2023-06-26T02:57:10;101404.03;;;19.52;100.00
48668;BME280;34453;52.198;5.004;2023-06-26T02:59:38;101410.09;;;19.45;100.00
48668;BME280;34453;52.198;5.004;2023-06-26T03:02:04;101414.13;;;19.41;100.00
48668;BME280;34453;52.198;5.004;2023-06-26T03:04:30;101416.06;;;19.33;100.00
48668;BME280;34453;52.198;5.004;2023-06-26T03:06:55;101413.59;;;19.31;100.00
48668;BME280;34453;52.198;5.004;2023-06-26T03:09:21;101421.94;;;19.28;100.00
48668;BME280;34453;52.198;5.004;2023-06-26T03:11:47;101430.63;;;19.22;100.00
48668;BME280;34453;52.198;5.004;2023-06-26T03:14:12;101434.28;;;19.21;100.00
48668;BME280;34453;52.198;5.004;2023-06-26T03:16:38;101433.81;;;19.17;100.00
48668;BME280;34453;52.198;5.004;2023-06-26T03:19:04;101445.97;;;19.12;100.00
48668;BME280;34453;52.198;5.004;2023-06-26T03:21:29;101449.47;;;19.12;100.00
48668;BME280;34453;52.198;5.004;2023-06-26T03:23:55;101453.94;;;19.12;100.00
48668;BME280;34453;52.198;5.004;2023-06-26T03:26:20;101457.78;;;19.09;100.00
48668;BME280;34453;52.198;5.004;2023-06-26T03:28:54;101465.94;;;19.08;100.00
48668;BME280;34453;52.198;5.004;2023-06-26T03:31:20;101463.63;;;19.04;100.00
48668;BME280;34453;52.198;5.004;2023-06-26T03:33:46;101459.03;;;18.98;100.00
48668;BME280;34453;52.198;5.004;2023-06-26T03:36:11;101472.75;;;19.02;100.00
48668;BME280;34453;52.198;5.004;2023-06-26T03:38:37;101467.47;;;19.02;100.00
48668;BME280;34453;52.198;5.004;2023-06-26T03:41:02;101467.47;;;19.02;100.00
48668;BME280;34453;52.198;5.004;2023-06-26T03:43:28;101464.97;;;19.00;100.00
48668;BME280;34453;52.198;5.004;2023-06-26T03:45:53;101468.00;;;18.97;100.00
48668;BME280;34453;52.198;5.004;2023-06-26T03:48:19;101462.22;;;18.94;100.00
48668;BME280;34453;52.198;5.004;2023-06-26T03:50:44;101475.03;;;18.90;100.00
48668;BME280;34453;52.198;5.004;2023-06-26T03:53:10;101474.56;;;18.87;100.00
48668;BME280;34453;52.198;5.004;2023-06-26T03:55:35;101480.25;;;18.83;100.00
48668;BME280;34453;52.198;5.004;2023-06-26T03:58:01;101477.94;;;18.80;100.00
48668;BME280;34453;52.198;5.004;2023-06-26T04:00:26;101474.47;;;18.80;100.00
48668;BME280;34453;52.198;5.004;2023-06-26T04:02:52;101483.44;;;18.79;100.00
48668;BME280;34453;52.198;5.004;2023-06-26T04:05:17;101483.75;;;18.76;100.00
48668;BME280;34453;52.198;5.004;2023-06-26T04:07:43;101487.75;;;18.72;100.00
48668;BME280;34453;52.198;5.004;2023-06-26T04:10:08;101490.78;;;18.69;100.00
48668;BME280;34453;52.198;5.004;2023-06-26T04:12:34;101490.78;;;18.69;100.00
48668;BME280;34453;52.198;5.004;2023-06-26T04:14:59;101494.59;;;18.66;100.00
48668;BME280;34453;52.198;5.004;2023-06-26T04:17:25;101503.53;;;18.65;100.00
48668;BME280;34453;52.198;5.004;2023-06-26T04:19:50;101500.13;;;18.56;100.00
48668;BME280;34453;52.198;5.004;2023-06-26T04:22:16;101511.56;;;18.57;100.00
48668;BME280;34453;52.198;5.004;2023-06-26T04:24:41;101524.19;;;18.55;100.00
48668;BME280;34453;52.198;5.004;2023-06-26T04:27:07;101522.72;;;18.52;100.00
48668;BME280;34453;52.198;5.004;2023-06-26T04:29:32;101530.19;;;18.49;100.00
48668;BME280;34453;52.198;5.004;2023-06-26T04:31:57;101538.28;;;18.47;100.00
48668;BME280;34453;52.198;5.004;2023-06-26T04:34:29;101545.06;;;18.50;100.00
48668;BME280;34453;52.198;5.004;2023-06-26T04:36:57;101543.25;;;18.50;100.00
48668;BME280;34453;52.198;5.004;2023-06-26T04:39:23;101541.53;;;18.57;100.00
48668;BME280;34453;52.198;5.004;2023-06-26T04:41:48;101539.00;;;18.64;100.00
48668;BME280;34453;52.198;5.004;2023-06-26T04:44:13;101542.25;;;18.74;100.00
48668;BME280;34453;52.198;5.004;2023-06-26T04:46:39;101552.34;;;18.79;100.00
48668;BME280;34453;52.198;5.004;2023-06-26T04:49:08;101541.38;;;18.82;100.00
48668;BME280;34453;52.198;5.004;2023-06-26T04:51:34;101535.06;;;18.83;100.00
48668;BME280;34453;52.198;5.004;2023-06-26T04:54:06;101534.72;;;18.86;100.00
48668;BME280;34453;52.198;5.004;2023-06-26T04:56:32;101549.19;;;18.98;100.00
48668;BME280;34453;52.198;5.004;2023-06-26T04:58:57;101550.84;;;18.99;100.00
48668;BME280;34453;52.198;5.004;2023-06-26T05:01:23;101541.44;;;18.97;100.00
48668;BME280;34453;52.198;5.004;2023-06-26T05:03:48;101544.78;;;18.91;100.00
48668;BME280;34453;52.198;5.004;2023-06-26T05:06:13;101550.03;;;18.99;100.00
48668;BME280;34453;52.198;5.004;2023-06-26T05:08:39;101555.97;;;19.01;100.00
48668;BME280;34453;52.198;5.004;2023-06-26T05:11:04;101551.94;;;19.05;100.00
48668;BME280;34453;52.198;5.004;2023-06-26T05:13:30;101543.66;;;19.08;100.00
48668;BME280;34453;52.198;5.004;2023-06-26T05:15:55;101544.28;;;19.10;100.00
48668;BME280;34453;52.198;5.004;2023-06-26T05:18:20;101550.41;;;19.11;100.00
48668;BME280;34453;52.198;5.004;2023-06-26T05:20:46;101548.34;;;19.21;100.00
48668;BME280;34453;52.198;5.004;2023-06-26T05:23:12;101547.69;;;19.19;100.00
48668;BME280;34453;52.198;5.004;2023-06-26T05:25:38;101558.31;;;19.19;100.00
48668;BME280;34453;52.198;5.004;2023-06-26T05:28:06;101557.13;;;19.21;100.00
48668;BME280;34453;52.198;5.004;2023-06-26T05:30:35;101559.66;;;19.30;100.00
48668;BME280;34453;52.198;5.004;2023-06-26T05:33:01;101562.78;;;19.33;100.00
48668;BME280;34453;52.198;5.004;2023-06-26T05:35:30;101566.66;;;19.45;100.00
48668;BME280;34453;52.198;5.004;2023-06-26T05:37:57;101572.25;;;19.51;100.00
48668;BME280;34453;52.198;5.004;2023-06-26T05:40:23;101576.44;;;19.60;100.00
48668;BME280;34453;52.198;5.004;2023-06-26T05:42:49;101584.69;;;19.65;100.00
48668;BME280;34453;52.198;5.004;2023-06-26T05:45:15;101571.72;;;19.70;100.00
48668;BME280;34453;52.198;5.004;2023-06-26T05:47:41;101588.66;;;19.69;100.00
48668;BME280;34453;52.198;5.004;2023-06-26T05:50:08;101596.59;;;19.69;100.00
48668;BME280;34453;52.198;5.004;2023-06-26T05:52:33;101598.59;;;19.67;100.00
48668;BME280;34453;52.198;5.004;2023-06-26T05:55:00;101604.22;;;19.72;100.00
48668;BME280;34453;52.198;5.004;2023-06-26T05:57:27;101612.19;;;19.72;100.00
48668;BME280;34453;52.198;5.004;2023-06-26T05:59:53;101600.81;;;19.78;100.00
48668;BME280;34453;52.198;5.004;2023-06-26T06:02:19;101617.38;;;19.80;100.00
48668;BME280;34453;52.198;5.004;2023-06-26T06:04:44;101625.09;;;19.75;100.00
48668;BME280;34453;52.198;5.004;2023-06-26T06:07:10;101627.28;;;19.72;100.00
48668;BME280;34453;52.198;5.004;2023-06-26T06:09:35;101621.16;;;19.71;100.00
48668;BME280;34453;52.198;5.004;2023-06-26T06:12:01;101633.16;;;19.82;100.00
48668;BME280;34453;52.198;5.004;2023-06-26T06:14:27;101627.66;;;19.83;100.00
48668;BME280;34453;52.198;5.004;2023-06-26T06:16:53;101625.44;;;20.02;100.00
48668;BME280;34453;52.198;5.004;2023-06-26T06:19:19;101626.63;;;20.14;100.00
48668;BME280;34453;52.198;5.004;2023-06-26T06:21:44;101646.78;;;20.08;100.00
48668;BME280;34453;52.198;5.004;2023-06-26T06:24:10;101654.38;;;19.82;100.00
48668;BME280;34453;52.198;5.004;2023-06-26T06:26:36;101660.56;;;19.59;100.00
48668;BME280;34453;52.198;5.004;2023-06-26T06:29:01;101669.34;;;19.60;100.00
48668;BME280;34453;52.198;5.004;2023-06-26T06:31:27;101662.47;;;19.51;100.00
48668;BME280;34453;52.198;5.004;2023-06-26T06:33:55;101677.91;;;19.47;100.00
48668;BME280;34453;52.198;5.004;2023-06-26T06:36:21;101681.16;;;19.57;100.00
48668;BME280;34453;52.198;5.004;2023-06-26T06:38:46;101692.41;;;19.59;100.00
48668;BME280;34453;52.198;5.004;2023-06-26T06:41:11;101689.44;;;19.77;100.00
48668;BME280;34453;52.198;5.004;2023-06-26T06:43:38;101688.06;;;19.96;100.00
48668;BME280;34453;52.198;5.004;2023-06-26T06:46:04;101686.34;;;20.18;100.00
48668;BME280;34453;52.198;5.004;2023-06-26T06:48:30;101685.81;;;20.08;100.00
48668;BME280;34453;52.198;5.004;2023-06-26T06:50:56;101685.34;;;20.04;100.00
48668;BME280;34453;52.198;5.004;2023-06-26T06:53:22;101695.09;;;19.74;100.00
48668;BME280;34453;52.198;5.004;2023-06-26T06:55:48;101690.75;;;19.81;100.00
48668;BME280;34453;52.198;5.004;2023-06-26T06:58:14;101687.34;;;19.87;100.00
48668;BME280;34453;52.198;5.004;2023-06-26T07:00:42;101694.66;;;19.71;100.00
48668;BME280;34453;52.198;5.004;2023-06-26T07:03:07;101693.47;;;19.73;100.00
48668;BME280;34453;52.198;5.004;2023-06-26T07:05:32;101700.78;;;19.71;100.00
48668;BME280;34453;52.198;5.004;2023-06-26T07:07:58;101706.91;;;19.72;100.00
48668;BME280;34453;52.198;5.004;2023-06-26T07:10:23;101703.91;;;19.75;100.00
48668;BME280;34453;52.198;5.004;2023-06-26T07:12:49;101703.63;;;19.84;100.00
48668;BME280;34453;52.198;5.004;2023-06-26T07:15:14;101708.69;;;19.79;100.00
48668;BME280;34453;52.198;5.004;2023-06-26T07:17:40;101708.78;;;19.86;100.00
48668;BME280;34453;52.198;5.004;2023-06-26T07:20:06;101705.78;;;20.04;100.00
48668;BME280;34453;52.198;5.004;2023-06-26T07:22:34;101699.06;;;19.93;100.00
48668;BME280;34453;52.198;5.004;2023-06-26T07:24:59;101707.75;;;19.87;100.00
48668;BME280;34453;52.198;5.004;2023-06-26T07:27:25;101712.31;;;19.78;100.00
48668;BME280;34453;52.198;5.004;2023-06-26T07:29:50;101709.22;;;19.90;100.00
48668;BME280;34453;52.198;5.004;2023-06-26T07:32:16;101728.47;;;19.92;100.00
48668;BME280;34453;52.198;5.004;2023-06-26T07:34:41;101733.31;;;20.03;100.00
48668;BME280;34453;52.198;5.004;2023-06-26T07:37:08;101731.31;;;20.20;100.00
48668;BME280;34453;52.198;5.004;2023-06-26T07:39:33;101731.50;;;20.18;100.00
48668;BME280;34453;52.198;5.004;2023-06-26T07:41:58;101736.53;;;20.13;100.00
48668;BME280;34453;52.198;5.004;2023-06-26T07:44:27;101742.59;;;19.69;100.00
48668;BME280;34453;52.198;5.004;2023-06-26T07:46:52;101726.34;;;19.72;100.00
48668;BME280;34453;52.198;5.004;2023-06-26T07:49:18;101745.38;;;19.76;100.00
48668;BME280;34453;52.198;5.004;2023-06-26T07:51:43;101743.56;;;19.91;100.00
48668;BME280;34453;52.198;5.004;2023-06-26T07:54:08;101744.88;;;19.95;100.00
48668;BME280;34453;52.198;5.004;2023-06-26T07:56:54;101755.97;;;20.14;100.00
48668;BME280;34453;52.198;5.004;2023-06-26T07:59:20;101745.97;;;20.16;100.00
48668;BME280;34453;52.198;5.004;2023-06-26T08:01:47;101748.09;;;20.20;100.00
48668;BME280;34453;52.198;5.004;2023-06-26T08:04:13;101744.97;;;20.32;100.00
48668;BME280;34453;52.198;5.004;2023-06-26T08:06:38;101757.41;;;20.16;100.00
48668;BME280;34453;52.198;5.004;2023-06-26T08:09:06;101750.34;;;19.94;100.00
48668;BME280;34453;52.198;5.004;2023-06-26T08:11:33;101767.63;;;19.90;100.00
48668;BME280;34453;52.198;5.004;2023-06-26T08:13:58;101755.59;;;20.02;100.00
48668;BME280;34453;52.198;5.004;2023-06-26T08:16:24;101766.03;;;20.18;100.00
48668;BME280;34453;52.198;5.004;2023-06-26T08:18:49;101768.25;;;20.15;100.00
48668;BME280;34453;52.198;5.004;2023-06-26T08:21:14;101765.75;;;20.13;100.00
48668;BME280;34453;52.198;5.004;2023-06-26T08:23:40;101763.38;;;20.03;100.00
48668;BME280;34453;52.198;5.004;2023-06-26T08:26:05;101765.69;;;20.21;100.00
48668;BME280;34453;52.198;5.004;2023-06-26T08:28:31;101766.13;;;20.25;100.00
48668;BME280;34453;52.198;5.004;2023-06-26T08:30:56;101770.09;;;20.29;100.00
48668;BME280;34453;52.198;5.004;2023-06-26T08:33:22;101770.38;;;20.19;100.00
48668;BME280;34453;52.198;5.004;2023-06-26T08:35:47;101773.56;;;20.29;100.00
48668;BME280;34453;52.198;5.004;2023-06-26T08:38:12;101777.94;;;20.22;100.00
48668;BME280;34453;52.198;5.004;2023-06-26T08:40:38;101781.81;;;20.35;100.00
48668;BME280;34453;52.198;5.004;2023-06-26T08:43:04;101776.50;;;20.20;100.00
48668;BME280;34453;52.198;5.004;2023-06-26T08:45:29;101774.94;;;20.25;100.00
48668;BME280;34453;52.198;5.004;2023-06-26T08:47:59;101778.50;;;20.47;100.00
48668;BME280;34453;52.198;5.004;2023-06-26T08:50:28;101794.22;;;20.57;100.00
48668;BME280;34453;52.198;5.004;2023-06-26T08:55:22;101790.34;;;20.30;100.00
48668;BME280;34453;52.198;5.004;2023-06-26T08:57:50;101795.19;;;20.26;100.00
48668;BME280;34453;52.198;5.004;2023-06-26T09:00:17;101788.97;;;20.19;100.00
48668;BME280;34453;52.198;5.004;2023-06-26T09:02:43;101790.78;;;20.34;100.00
48668;BME280;34453;52.198;5.004;2023-06-26T09:05:09;101790.16;;;20.46;100.00
48668;BME280;34453;52.198;5.004;2023-06-26T09:07:35;101814.28;;;20.60;100.00
48668;BME280;34453;52.198;5.004;2023-06-26T09:10:00;101800.50;;;20.56;100.00
48668;BME280;34453;52.198;5.004;2023-06-26T09:12:29;101807.06;;;20.68;100.00
48668;BME280;34453;52.198;5.004;2023-06-26T09:14:56;101808.44;;;20.64;100.00
48668;BME280;34453;52.198;5.004;2023-06-26T09:17:25;101806.78;;;20.63;100.00
48668;BME280;34453;52.198;5.004;2023-06-26T09:19:54;101809.72;;;20.68;100.00
48668;BME280;34453;52.198;5.004;2023-06-26T09:22:19;101823.25;;;20.74;100.00
48668;BME280;34453;52.198;5.004;2023-06-26T09:24:45;101809.88;;;20.52;100.00
48668;BME280;34453;52.198;5.004;2023-06-26T09:27:11;101821.06;;;20.62;100.00
48668;BME280;34453;52.198;5.004;2023-06-26T09:29:36;101819.06;;;20.64;100.00
48668;BME280;34453;52.198;5.004;2023-06-26T09:32:02;101814.53;;;20.50;100.00
48668;BME280;34453;52.198;5.004;2023-06-26T09:34:32;101817.66;;;20.54;100.00
48668;BME280;34453;52.198;5.004;2023-06-26T09:36:59;101825.75;;;20.75;100.00
48668;BME280;34453;52.198;5.004;2023-06-26T09:39:30;101829.88;;;20.78;100.00
48668;BME280;34453;52.198;5.004;2023-06-26T09:41:56;101839.94;;;20.82;100.00
48668;BME280;34453;52.198;5.004;2023-06-26T09:44:22;101833.81;;;20.82;100.00
48668;BME280;34453;52.198;5.004;2023-06-26T09:46:48;101839.69;;;20.92;100.00
48668;BME280;34453;52.198;5.004;2023-06-26T09:49:14;101845.59;;;21.24;100.00
48668;BME280;34453;52.198;5.004;2023-06-26T09:51:41;101833.50;;;21.06;100.00
48668;BME280;34453;52.198;5.004;2023-06-26T09:54:07;101846.56;;;21.01;100.00
48668;BME280;34453;52.198;5.004;2023-06-26T09:56:34;101845.19;;;21.27;100.00
48668;BME280;34453;52.198;5.004;2023-06-26T09:59:04;101852.22;;;21.13;100.00
48668;BME280;34453;52.198;5.004;2023-06-26T10:01:30;101860.00;;;21.15;100.00
48668;BME280;34453;52.198;5.004;2023-06-26T10:03:57;101865.44;;;21.06;100.00
48668;BME280;34453;52.198;5.004;2023-06-26T10:06:27;101868.91;;;21.22;100.00
48668;BME280;34453;52.198;5.004;2023-06-26T10:08:55;101861.16;;;21.27;100.00
48668;BME280;34453;52.198;5.004;2023-06-26T10:11:21;101872.69;;;21.34;100.00
48668;BME280;34453;52.198;5.004;2023-06-26T10:13:50;101870.38;;;21.82;100.00
48668;BME280;34453;52.198;5.004;2023-06-26T10:16:22;101873.56;;;21.92;100.00
48668;BME280;34453;52.198;5.004;2023-06-26T10:18:50;101887.69;;;21.35;100.00
48668;BME280;34453;52.198;5.004;2023-06-26T10:21:20;101882.78;;;21.39;100.00
48668;BME280;34453;52.198;5.004;2023-06-26T10:23:48;101888.16;;;21.24;100.00
48668;BME280;34453;52.198;5.004;2023-06-26T10:26:16;101889.19;;;21.08;100.00
48668;BME280;34453;52.198;5.004;2023-06-26T10:28:44;101892.19;;;21.35;100.00
48668;BME280;34453;52.198;5.004;2023-06-26T10:31:11;101881.31;;;21.36;100.00
48668;BME280;34453;52.198;5.004;2023-06-26T10:33:38;101881.25;;;21.29;100.00
48668;BME280;34453;52.198;5.004;2023-06-26T10:36:17;101887.47;;;21.51;100.00
48668;BME280;34453;52.198;5.004;2023-06-26T10:38:56;101892.84;;;21.22;100.00
48668;BME280;34453;52.198;5.004;2023-06-26T10:41:23;101893.19;;;21.48;100.00
48668;BME280;34453;52.198;5.004;2023-06-26T10:43:51;101883.81;;;21.52;100.00
48668;BME280;34453;52.198;5.004;2023-06-26T10:46:18;101901.34;;;21.32;100.00
48668;BME280;34453;52.198;5.004;2023-06-26T10:49:00;101901.25;;;21.40;100.00
48668;BME280;34453;52.198;5.004;2023-06-26T10:51:26;101894.00;;;21.34;100.00
48668;BME280;34453;52.198;5.004;2023-06-26T10:53:56;101899.53;;;21.18;100.00
48668;BME280;34453;52.198;5.004;2023-06-26T10:56:40;101898.41;;;21.57;100.00
48668;BME280;34453;52.198;5.004;2023-06-26T10:59:20;101913.34;;;21.58;100.00
48668;BME280;34453;52.198;5.004;2023-06-26T11:01:54;101914.97;;;21.59;100.00
48668;BME280;34453;52.198;5.004;2023-06-26T11:04:47;101911.28;;;21.96;100.00
48668;BME280;34453;52.198;5.004;2023-06-26T11:07:22;101910.59;;;22.30;100.00
48668;BME280;34453;52.198;5.004;2023-06-26T11:10:11;101914.25;;;22.29;100.00
48668;BME280;34453;52.198;5.004;2023-06-26T11:12:43;101921.00;;;22.25;100.00
48668;BME280;34453;52.198;5.004;2023-06-26T11:15:10;101915.28;;;22.07;100.00
48668;BME280;34453;52.198;5.004;2023-06-26T11:17:38;101919.09;;;22.19;100.00
48668;BME280;34453;52.198;5.004;2023-06-26T11:20:05;101925.06;;;22.21;100.00
48668;BME280;34453;52.198;5.004;2023-06-26T11:22:35;101938.28;;;21.71;100.00
48668;BME280;34453;52.198;5.004;2023-06-26T11:25:02;101944.34;;;22.02;100.00
48668;BME280;34453;52.198;5.004;2023-06-26T11:27:46;101934.16;;;21.69;100.00
48668;BME280;34453;52.198;5.004;2023-06-26T11:30:23;101944.28;;;21.59;100.00
48668;BME280;34453;52.198;5.004;2023-06-26T11:32:49;101956.22;;;21.63;100.00
48668;BME280;34453;52.198;5.004;2023-06-26T11:35:22;101955.78;;;21.29;100.00
48668;BME280;34453;52.198;5.004;2023-06-26T11:38:08;101963.41;;;21.18;100.00
48668;BME280;34453;52.198;5.004;2023-06-26T11:43:01;101957.34;;;21.09;100.00
48668;BME280;34453;52.198;5.004;2023-06-26T11:45:28;101969.19;;;21.51;100.00
48668;BME280;34453;52.198;5.004;2023-06-26T11:47:56;101968.59;;;21.70;100.00
48668;BME280;34453;52.198;5.004;2023-06-26T11:50:22;101963.91;;;22.30;100.00
48668;BME280;34453;52.198;5.004;2023-06-26T11:52:55;101983.84;;;21.77;100.00
48668;BME280;34453;52.198;5.004;2023-06-26T11:55:21;101976.97;;;22.25;100.00
48668;BME280;34453;52.198;5.004;2023-06-26T11:57:52;101986.28;;;22.14;100.00
48668;BME280;34453;52.198;5.004;2023-06-26T12:00:18;101978.59;;;21.83;100.00
48668;BME280;34453;52.198;5.004;2023-06-26T12:02:45;101993.03;;;21.96;100.00
48668;BME280;34453;52.198;5.004;2023-06-26T12:05:14;101992.13;;;22.25;100.00
48668;BME280;34453;52.198;5.004;2023-06-26T12:07:44;101990.06;;;22.70;100.00
48668;BME280;34453;52.198;5.004;2023-06-26T12:10:11;101997.09;;;22.77;100.00
48668;BME280;34453;52.198;5.004;2023-06-26T12:12:39;101999.09;;;22.69;100.00
48668;BME280;34453;52.198;5.004;2023-06-26T12:15:06;101999.84;;;22.63;100.00
48668;BME280;34453;52.198;5.004;2023-06-26T12:17:32;101985.41;;;22.50;100.00
48668;BME280;34453;52.198;5.004;2023-06-26T12:19:58;102006.69;;;22.22;100.00
48668;BME280;34453;52.198;5.004;2023-06-26T12:22:33;102013.22;;;22.05;100.00
48668;BME280;34453;52.198;5.004;2023-06-26T12:24:59;102019.00;;;22.23;100.00
48668;BME280;34453;52.198;5.004;2023-06-26T12:27:46;102014.97;;;22.12;100.00
48668;BME280;34453;52.198;5.004;2023-06-26T12:30:12;102022.06;;;21.54;100.00
48668;BME280;34453;52.198;5.004;2023-06-26T12:32:38;102019.69;;;21.59;100.00
48668;BME280;34453;52.198;5.004;2023-06-26T12:35:03;102026.63;;;21.60;100.00
48668;BME280;34453;52.198;5.004;2023-06-26T12:37:29;102028.94;;;22.14;100.00
48668;BME280;34453;52.198;5.004;2023-06-26T12:39:56;102020.06;;;22.29;100.00
48668;BME280;34453;52.198;5.004;2023-06-26T12:42:24;102025.41;;;22.14;100.00
48668;BME280;34453;52.198;5.004;2023-06-26T12:44:51;102021.69;;;22.08;100.00
48668;BME280;34453;52.198;5.004;2023-06-26T12:47:17;102040.63;;;22.56;100.00
48668;BME280;34453;52.198;5.004;2023-06-26T12:49:49;102041.22;;;21.79;100.00
48668;BME280;34453;52.198;5.004;2023-06-26T12:52:15;102042.13;;;21.86;100.00
48668;BME280;34453;52.198;5.004;2023-06-26T12:54:42;102045.91;;;21.77;100.00
48668;BME280;34453;52.198;5.004;2023-06-26T12:57:09;102038.28;;;21.74;100.00